Latest Coastal Weather Observations for Croker Island Airport

IDD60701

Issued at 2:31 pm CST Thursday 21 September 2017 (issued every 10 minutes, with the page automatically refreshed every 10 minutes)

About coastal observations | Map of coastal stations | Coastal observations for NT | Marine services | Other Formats
Station Details ID: 014308 Name: CROKER ISLAND AIRPORT Lat: -11.16 Lon: 132.48 Height: 9.2 m
Data from the previous 72 hours. | See also: Recent months at Croker Island Airport
Date/Time
CST
Temp
°C
Wind Pressure Rain since
9am
mm
Weather Cloud Vis
km
Sea
Height
m
Swell
Dir  Spd
kts
Gust
kts
hPa Trend Height
m
Period
s
Dir
21/02:30pm 31.1 ENE 11 17 1010.4 - 0.0 - - - - - - -
21/02:00pm 31.4 ENE 12 19 1010.8 - 0.0 - - - - - - -
21/01:30pm 32.2 ENE 11 17 1011.1 - 0.0 - - - - - - -
21/01:00pm 31.6 E 10 16 1011.5 - 0.0 - - - - - - -
21/12:30pm 32.3 E 9 14 1011.8 - 0.0 - - - - - - -
21/12:00pm 31.4 ENE 10 16 1012.2 - 0.0 - - - - - - -
21/11:30am 32.1 ENE 10 14 1012.6 - 0.0 - - - - - - -
21/11:00am 30.9 ENE 9 15 1012.7 - 0.0 - - - - - - -
21/10:30am 31.1 E 10 15 1012.9 - 0.0 - - - - - - -
21/10:00am 30.7 E 9 14 1013.0 - 0.0 - - - - - - -
21/09:30am 29.3 E 7 12 1013.0 - 0.0 - - - - - - -
21/09:00am 29.0 E 7 13 1012.9 - 0.0 - - - - - - -
21/08:30am 28.3 E 9 13 1012.5 - 0.0 - - - - - - -
21/08:00am 27.6 E 8 11 1012.5 - 0.0 - - - - - - -
21/07:30am 27.2 ESE 4 6 1012.3 - 0.0 - - - - - - -
21/07:00am 26.0 E 3 6 1012.0 - 0.0 - - - - - - -
21/06:30am 25.6 E 5 9 1011.6 - 0.0 - - - - - - -
21/06:00am 25.9 E 7 12 1011.0 - 0.0 - - - - - - -
21/05:30am 26.1 E 7 11 1010.9 - 0.0 - - - - - - -
21/05:00am 26.3 E 6 10 1011.0 - 0.0 - - - - - - -
21/04:30am 26.3 E 7 12 1010.7 - 0.0 - - - - - - -
21/04:00am 26.4 E 7 10 1010.7 - 0.0 - - - - - - -
21/03:30am 26.4 E 8 13 1010.6 - 0.0 - - - - - - -
21/03:00am 26.3 E 6 9 1010.8 - 0.0 - - - - - - -
21/02:30am 26.4 E 7 11 1011.1 - 0.0 - - - - - - -
21/02:00am 26.4 E 8 12 1011.3 - 0.0 - - - - - - -
21/01:30am 26.4 ENE 8 12 1011.3 - 0.0 - - - - - - -
21/01:00am 26.3 E 7 10 1011.4 - 0.0 - - - - - - -
21/12:30am 26.3 E 6 9 1011.8 - 0.0 - - - - - - -
21/12:00am 26.4 E 6 9 1011.9 - 0.0 - - - - - - -
 
Date/Time
CST
Temp
°C
Wind Pressure Rain since
9am
mm
Weather Cloud Vis
km
Sea
Height
m
Swell
Dir  Spd
kts
Gust
kts
hPa Trend Height
m
Period
s
Dir
20/11:30pm 26.2 ENE 5 7 1011.8 - 0.0 - - - - - - -
20/11:00pm 26.1 ENE 4 6 1011.7 - 0.0 - - - - - - -
20/10:30pm 26.1 ENE 3 5 1011.5 - 0.0 - - - - - - -
20/10:00pm 26.2 ENE 5 6 1011.4 - 0.0 - - - - - - -
20/09:30pm 26.3 ENE 5 8 1011.3 - 0.0 - - - - - - -
20/09:00pm 26.4 ENE 7 11 1011.1 - 0.0 - - - - - - -
20/08:30pm 26.4 ENE 5 7 1010.9 - 0.0 - - - - - - -
20/08:00pm 26.5 ENE 3 6 1010.7 - 0.0 - - - - - - -
20/07:30pm 26.7 ENE 5 7 1010.4 - 0.0 - - - - - - -
20/07:00pm 27.0 ENE 7 10 1010.3 - 0.0 - - - - - - -
20/06:30pm 27.6 ENE 8 13 1009.9 - 0.0 - - - - - - -
20/06:00pm 28.4 ENE 10 18 1009.7 - 0.0 - - - - - - -
20/05:30pm 29.1 E 11 17 1009.6 - 0.0 - - - - - - -
20/05:00pm 29.8 E 10 15 1009.7 - 0.0 - - - - - - -
20/04:30pm 30.4 E 11 16 1009.6 - 0.0 - - - - - - -
20/04:00pm 30.5 ENE 14 20 1009.8 - 0.0 - - - - - - -
20/03:30pm 30.8 ENE 12 18 1009.8 - 0.0 - - - - - - -
20/03:00pm 30.6 E 11 18 1010.3 - 0.0 - - - - - - -
20/02:30pm 32.1 E 12 18 1010.6 - 0.0 - - - - - - -
20/02:00pm 31.7 E 14 21 1011.0 - 0.0 - - - - - - -
20/01:30pm 31.7 E 13 19 1011.3 - 0.0 - - - - - - -
20/01:00pm 31.9 ENE 14 22 1011.7 - 0.0 - - - - - - -
20/12:30pm 31.3 E 11 17 1011.9 - 0.0 - - - - - - -
20/12:00pm 31.3 E 12 19 1012.3 - 0.0 - - - - - - -
20/11:30am 31.5 E 10 17 1012.7 - 0.0 - - - - - - -
20/11:00am 30.8 ENE 10 15 1012.9 - 0.0 - - - - - - -
20/10:30am 31.1 ENE 10 16 1013.3 - 0.0 - - - - - - -
20/10:00am 30.4 E 12 16 1013.5 - 0.0 - - - - - - -
20/09:30am 29.9 ENE 10 16 1013.5 - 0.0 - - - - - - -
20/09:00am 29.9 E 9 15 1013.6 - 0.0 - - - - - - -
20/08:30am 28.2 E 7 11 1013.4 - 0.0 - - - - - - -
20/08:00am 27.0 SE 4 8 1013.1 - 0.0 - - - - - - -
20/07:30am 25.9 SE 3 5 1012.6 - 0.0 - - - - - - -
20/07:00am 24.9 SE 3 4 1012.5 - 0.0 - - - - - - -
20/06:30am 24.4 SE 3 4 1012.2 - 0.0 - - - - - - -
20/06:00am 24.4 SE 2 2 1012.0 - 0.0 - - - - - - -
20/05:30am 24.9 SE 2 3 1011.7 - 0.0 - - - - - - -
20/05:00am 25.5 E 4 6 1011.5 - 0.0 - - - - - - -
20/04:30am 25.6 E 4 7 1011.3 - 0.0 - - - - - - -
20/04:00am 25.8 E 5 8 1011.1 - 0.0 - - - - - - -
20/03:30am 25.8 E 5 7 1011.3 - 0.0 - - - - - - -
20/03:00am 25.9 E 5 8 1011.6 - 0.0 - - - - - - -
20/02:30am 26.0 E 5 8 1011.7 - 0.0 - - - - - - -
20/02:00am 26.2 E 6 10 1012.1 - 0.0 - - - - - - -
20/01:30am 26.4 E 6 10 1012.2 - 0.0 - - - - - - -
20/01:00am 26.4 ENE 7 11 1012.5 - 0.0 - - - - - - -
20/12:30am 26.5 ENE 8 13 1012.8 - 0.0 - - - - - - -
20/12:00am 26.4 ENE 6 9 1013.1 - 0.0 - - - - - - -
 
Date/Time
CST
Temp
°C
Wind Pressure Rain since
9am
mm
Weather Cloud Vis
km
Sea
Height
m
Swell
Dir  Spd
kts
Gust
kts
hPa Trend Height
m
Period
s
Dir
19/11:30pm 26.5 ENE 7 11 1013.2 - 0.0 - - - - - - -
19/11:00pm 26.3 ENE 5 8 1013.4 - 0.0 - - - - - - -
19/10:30pm 26.3 ENE 5 7 1013.4 - 0.0 - - - - - - -
19/10:00pm 26.1 ENE 4 5 1013.2 - 0.0 - - - - - - -
19/09:30pm 26.1 ENE 3 4 1012.9 - 0.0 - - - - - - -
19/09:00pm 26.2 ENE 4 6 1012.6 - 0.0 - - - - - - -
19/08:30pm 26.3 ENE 3 4 1012.3 - 0.0 - - - - - - -
19/08:00pm 26.5 ENE 4 7 1012.1 - 0.0 - - - - - - -
19/07:30pm 26.7 ENE 3 6 1011.8 - 0.0 - - - - - - -
19/07:00pm 27.0 ENE 5 9 1011.3 - 0.0 - - - - - - -
19/06:30pm 27.4 NE 7 11 1010.8 - 0.0 - - - - - - -
19/06:00pm 28.2 ENE 11 16 1010.4 - 0.0 - - - - - - -
19/05:30pm 29.2 ENE 10 15 1010.1 - 0.0 - - - - - - -
19/05:00pm 29.6 NE 10 15 1010.1 - 0.0 - - - - - - -
19/04:30pm 30.6 ENE 12 17 1010.2 - 0.0 - - - - - - -
19/04:00pm 31.4 ENE 10 17 1010.5 - 0.0 - - - - - - -
19/03:30pm 31.4 E 12 19 1010.7 - 0.0 - - - - - - -
19/03:00pm 31.6 E 13 21 1011.1 - 0.0 - - - - - - -
19/02:30pm 31.2 ENE 14 21 1011.4 - 0.0 - - - - - - -
19/02:00pm 31.6 ENE 13 21 1011.8 - 0.0 - - - - - - -
19/01:30pm 31.2 ENE 12 17 1011.9 - 0.0 - - - - - - -
19/01:00pm 31.9 ENE 11 18 1012.5 - 0.0 - - - - - - -
19/12:30pm 30.9 ENE 10 19 1012.9 - 0.0 - - - - - - -
19/12:00pm 31.0 ENE 11 16 1013.3 - 0.0 - - - - - - -
19/11:30am 30.7 ENE 10 15 1013.6 - 0.0 - - - - - - -
19/11:00am 30.7 E 9 15 1014.0 - 0.0 - - - - - - -
19/10:30am 30.9 E 6 9 1014.3 - 0.0 - - - - - - -
19/10:00am 29.3 E 7 12 1014.5 - 0.0 - - - - - - -
19/09:30am 29.0 ESE 8 13 1014.4 - 0.0 - - - - - - -
19/09:00am 27.8 ESE 6 9 1014.3 - 0.0 - - - - - - -
19/08:30am 27.0 SE 6 8 1014.3 - 0.0 - - - - - - -
19/08:00am 26.4 SE 4 7 1014.2 - 0.0 - - - - - - -
19/07:30am 25.0 SE 4 5 1014.0 - 0.0 - - - - - - -
19/07:00am 24.5 SE 4 5 1013.6 - 0.0 - - - - - - -
19/06:30am 24.1 SE 4 5 1013.2 - 0.0 - - - - - - -
19/06:00am 23.7 SE 4 5 1012.9 - 0.0 - - - - - - -
19/05:30am 23.5 SE 4 4 1012.9 - 0.0 - - - - - - -
19/05:00am 23.4 ESE 2 3 1012.7 - 0.0 - - - - - - -
19/04:30am 24.0 ESE 3 4 1012.7 - 0.0 - - - - - - -
19/04:00am 24.0 ESE 2 3 1012.5 - 0.0 - - - - - - -
19/03:30am 24.6 E 3 4 1012.5 - 0.0 - - - - - - -
19/03:00am 24.6 ESE 3 5 1012.7 - 0.0 - - - - - - -
19/02:30am 24.4 ESE 2 3 1012.8 - 0.0 - - - - - - -
19/02:00am 24.3 ESE 4 6 1013.1 - 0.0 - - - - - - -
19/01:30am 24.2 ESE 2 3 1013.5 - 0.0 - - - - - - -
19/01:00am 23.8 E 2 3 1013.8 - 0.0 - - - - - - -
19/12:30am 25.0 ENE 3 5 1014.2 - 0.0 - - - - - - -
19/12:00am 24.9 ENE 3 4 1014.6 - 0.0 - - - - - - -
 
Date/Time
CST
Temp
°C
Wind Pressure Rain since
9am
mm
Weather Cloud Vis
km
Sea
Height
m
Swell
Dir  Spd
kts
Gust
kts
hPa Trend Height
m
Period
s
Dir
18/11:30pm 24.9 ENE 3 5 1014.8 - 0.0 - - - - - - -
18/11:00pm 24.6 ENE 3 5 1014.9 - 0.0 - - - - - - -
18/10:30pm 23.6 ENE 2 2 1014.3 - 0.0 - - - - - - -
18/10:00pm 25.1 NE 2 4 1014.0 - 0.0 - - - - - - -
18/09:30pm 25.6 NE 3 5 1013.9 - 0.0 - - - - - - -
18/09:00pm 25.7 NE 3 4 1013.5 - 0.0 - - - - - - -
18/08:30pm 25.9 NNE 3 4 1013.3 - 0.0 - - - - - - -
18/08:00pm 26.2 NNE 4 6 1013.2 - 0.0 - - - - - - -
18/07:30pm 26.1 NE 3 3 1013.0 - 0.0 - - - - - - -
18/07:00pm 26.6 NE 2 3 1012.6 - 0.0 - - - - - - -
18/06:30pm 27.4 ENE 4 7 1012.1 - 0.0 - - - - - - -
18/06:00pm 28.4 ENE 7 11 1011.8 - 0.0 - - - - - - -
18/05:30pm 29.7 ENE 9 13 1011.6 - 0.0 - - - - - - -
18/05:00pm 30.3 ENE 10 16 1011.3 - 0.0 - - - - - - -
18/04:30pm 31.2 ENE 11 16 1011.1 - 0.0 - - - - - - -
18/04:00pm 31.4 ENE 13 19 1011.1 - 0.0 - - - - - - -
18/03:30pm 32.4 E 11 14 1011.4 - 0.0 - - - - - - -
18/03:00pm 32.1 E 11 16 1011.9 - 0.0 - - - - - - -

Other Formats:

Comma delimited format used in spreadsheet applications
http://www.bom.gov.au/fwo/IDD60701/IDD60701.94108.axf

JavaScript Object Notation format (JSON) in row-major order
http://www.bom.gov.au/fwo/IDD60701/IDD60701.94108.json